Time;durP1;ratioP1;P1;durP2;ratioP2;P2;SDS_P1;SDS_P2;PMS_P1;PMS_P2;Temp;Humidity;BMP_temperature;BMP_pressure;BME280_temperature;BME280_humidity;BME280_pressure;Samples;Min_cycle;Max_cycle;Signal;HPM_P1;HPM_P2
2021/04/15 00:00:20;;;;;;;13.30;11.90;;;;;;;2.10;81.48;99360.52;113300;1203;64388;-82
2021/04/15 00:03:09;;;;;;;12.60;11.20;;;;;;;2.09;81.74;99364.07;113448;1203;65222;-83
2021/04/15 00:05:38;;;;;;;13.30;12.00;;;;;;;2.10;82.52;99362.30;113449;1203;64442;-83
2021/04/15 00:08:07;;;;;;;12.15;10.90;;;;;;;2.10;81.84;99362.30;113481;1203;64454;-82
2021/04/15 00:10:38;;;;;;;13.85;10.95;;;;;;;2.09;82.02;99363.21;113446;1203;64426;-82
2021/04/15 00:13:12;;;;;;;11.70;10.50;;;;;;;2.08;82.25;99362.36;113368;1203;64320;-81
2021/04/15 00:15:38;;;;;;;13.10;11.50;;;;;;;2.06;82.44;99351.02;113412;1203;64511;-82
2021/04/15 00:18:05;;;;;;;14.55;11.60;;;;;;;2.05;82.47;99349.27;113455;1203;64413;-82
2021/04/15 00:20:31;;;;;;;13.95;12.30;;;;;;;2.03;82.59;99344.95;113423;1203;64429;-83
2021/04/15 00:22:58;;;;;;;12.60;10.90;;;;;;;1.97;82.59;99349.50;113407;1203;64428;-82
2021/04/15 00:25:25;;;;;;;13.60;11.50;;;;;;;1.96;82.70;99344.27;113260;1203;64454;-81
2021/04/15 00:27:53;;;;;;;13.45;12.05;;;;;;;1.96;82.44;99336.38;113345;1203;64382;-84
2021/04/15 00:30:22;;;;;;;14.93;11.43;;;;;;;1.93;83.06;99341.73;113224;1203;64385;-83
2021/04/15 00:32:49;;;;;;;12.23;11.03;;;;;;;1.89;82.76;99342.69;113222;1203;64398;-82
2021/04/15 00:35:18;;;;;;;13.25;11.95;;;;;;;1.89;82.70;99342.69;113190;1203;64446;-83
2021/04/15 00:37:45;;;;;;;13.35;12.05;;;;;;;1.89;82.89;99345.32;113268;1203;64420;-82
2021/04/15 00:40:12;;;;;;;11.60;9.90;;;;;;;1.90;82.98;99342.67;113194;1203;64384;-82
2021/04/15 00:42:39;;;;;;;13.33;12.03;;;;;;;1.92;82.66;99345.23;113197;1203;64445;-82
2021/04/15 00:45:16;;;;;;;12.93;11.53;;;;;;;1.91;83.13;99340.89;113287;1203;64468;-82
2021/04/15 00:47:47;;;;;;;19.00;13.80;;;;;;;1.89;83.00;99340.92;113179;1203;64366;-83
2021/04/15 00:50:28;;;;;;;16.43;14.00;;;;;;;1.87;83.12;99348.01;113235;1203;64334;-82
2021/04/15 00:53:01;;;;;;;14.03;12.63;;;;;;;1.83;83.05;99353.38;113379;1203;64423;-81
2021/04/15 00:55:32;;;;;;;13.60;12.15;;;;;;;1.84;83.11;99347.20;113246;1203;64451;-83
2021/04/15 00:58:00;;;;;;;12.70;11.40;;;;;;;1.82;82.97;99346.38;113268;1203;64407;-82
2021/04/15 01:00:30;;;;;;;12.90;11.60;;;;;;;1.80;83.05;99350.83;113269;1203;64471;-81
2021/04/15 01:02:59;;;;;;;11.50;10.30;;;;;;;1.80;83.26;99348.20;113159;1203;64451;-80
2021/04/15 01:05:36;;;;;;;12.53;11.10;;;;;;;1.78;83.26;99345.60;113330;1203;64369;-83
2021/04/15 01:08:03;;;;;;;11.10;10.00;;;;;;;1.77;83.17;99348.29;113242;1203;64426;-81
2021/04/15 01:10:34;;;;;;;12.53;11.27;;;;;;;1.75;83.14;99349.17;113415;1203;64436;-83
2021/04/15 01:13:22;;;;;;;11.20;10.00;;;;;;;1.78;83.75;99348.23;113454;1203;64449;-82
2021/04/15 01:16:28;;;;;;;13.00;10.60;;;;;;;1.70;83.39;99345.80;113479;1203;64395;-82
2021/04/15 01:19:17;;;;;;;11.20;9.77;;;;;;;1.67;83.60;99340.63;113143;1203;64508;-82
2021/04/15 01:22:22;;;;;;;11.97;10.70;;;;;;;1.66;83.29;99341.53;113254;1203;64387;-82
2021/04/15 01:25:02;;;;;;;10.00;8.75;;;;;;;1.68;83.70;99336.22;113117;1203;64498;-82
2021/04/15 01:27:36;;;;;;;;;;;;;;;1.67;83.38;99337.14;113311;1211;64400;-82
2021/04/15 01:30:30;;;;;;;9.23;8.23;;;;;;;1.66;83.44;99340.65;113432;1203;64366;-83
2021/04/15 01:33:21;;;;;;;9.40;7.55;;;;;;;1.62;83.39;99337.25;113465;1203;64324;-83
2021/04/15 01:36:00;;;;;;;9.00;8.10;;;;;;;1.62;83.67;99334.62;113287;1203;64505;-83
2021/04/15 01:38:32;;;;;;;9.50;8.50;;;;;;;1.63;83.62;99330.22;113371;1203;64487;-83
2021/04/15 01:41:17;;;;;;;9.25;8.35;;;;;;;1.59;83.70;99333.84;113433;1203;64432;-83
2021/04/15 01:43:50;;;;;;;12.00;8.50;;;;;;;1.57;83.63;99328.61;113354;1203;64387;-86
2021/04/15 01:46:20;;;;;;;9.40;8.30;;;;;;;1.53;83.90;99321.73;113682;1203;64388;-85
2021/04/15 01:48:52;;;;;;;8.75;7.95;;;;;;;1.52;83.63;99327.86;113526;1203;64400;-87
2021/04/15 01:51:23;;;;;;;11.27;9.47;;;;;;;1.52;83.89;99327.86;113408;1203;64362;-83
2021/04/15 01:53:55;;;;;;;8.33;7.53;;;;;;;1.54;83.83;99318.19;113768;1203;64371;-82
2021/04/15 01:56:33;;;;;;;10.20;8.60;;;;;;;1.56;83.76;99319.02;113429;1203;64394;-83
2021/04/15 01:59:10;;;;;;;10.15;8.20;;;;;;;1.57;83.98;99322.51;113316;1203;64387;-83
2021/04/15 02:01:48;;;;;;;11.50;9.30;;;;;;;1.58;83.92;99316.34;113257;1203;64391;-83
2021/04/15 02:04:22;;;;;;;12.57;10.27;;;;;;;1.57;83.84;99315.48;113260;1203;64394;-82
2021/04/15 02:06:54;;;;;;;13.17;11.30;;;;;;;1.55;83.84;99319.91;113194;1203;64465;-81
2021/04/15 02:09:22;;;;;;;14.10;10.95;;;;;;;1.55;83.90;99312.02;113231;1203;64465;-82
2021/04/15 02:12:00;;;;;;;11.95;10.75;;;;;;;1.55;83.89;99306.77;113254;1203;64391;-82
2021/04/15 02:14:32;;;;;;;13.00;11.70;;;;;;;1.53;83.99;99309.45;113250;1203;64468;-82
2021/04/15 02:17:03;;;;;;;12.50;11.10;;;;;;;1.57;84.27;99314.63;113290;1203;64433;-82
2021/04/15 02:19:39;;;;;;;12.30;10.80;;;;;;;1.55;83.91;99306.77;113346;1203;64506;-82
2021/04/15 02:22:28;;;;;;;11.07;9.90;;;;;;;1.53;84.26;99305.97;113201;1203;64516;-82
2021/04/15 02:25:09;;;;;;;12.95;11.05;;;;;;;1.47;84.41;99312.22;113167;1203;64476;-82
2021/04/15 02:27:53;;;;;;;14.00;12.20;;;;;;;1.44;84.35;99308.81;113244;1203;64471;-83
2021/04/15 02:30:25;;;;;;;11.80;10.60;;;;;;;1.41;84.56;99303.64;113493;1203;64430;-82
2021/04/15 02:33:12;;;;;;;12.75;11.45;;;;;;;1.39;84.39;99310.69;113376;1203;64375;-82
2021/04/15 02:35:43;;;;;;;16.15;14.00;;;;;;;1.41;84.61;99308.89;113266;1203;64407;-82
2021/04/15 02:38:12;;;;;;;12.65;11.50;;;;;;;1.46;84.60;99314.90;113312;1203;64848;-82
2021/04/15 02:40:44;;;;;;;11.60;10.50;;;;;;;1.46;84.63;99305.25;113227;1203;64476;-82
2021/04/15 02:43:22;;;;;;;12.80;10.00;;;;;;;1.49;84.69;99305.17;113167;1203;64352;-82
2021/04/15 02:45:53;;;;;;;12.40;11.10;;;;;;;1.50;84.72;99301.66;113275;1203;64433;-82
2021/04/15 02:48:28;;;;;;;10.85;9.70;;;;;;;1.50;84.60;99301.66;113499;1203;64388;-81
2021/04/15 02:51:03;;;;;;;20.20;16.70;;;;;;;1.51;84.38;99302.52;113443;1203;64397;-82
2021/04/15 02:53:59;;;;;;;21.60;19.30;;;;;;;1.49;84.68;99297.29;113449;1203;64420;-82
2021/04/15 02:56:31;;;;;;;17.23;14.97;;;;;;;1.50;84.61;99298.14;113365;1203;64541;-81
2021/04/15 02:59:10;;;;;;;12.70;11.40;;;;;;;1.48;84.71;99292.95;113344;1203;64359;-82
2021/04/15 03:01:43;;;;;;;11.98;10.88;;;;;;;1.47;84.69;99295.60;113379;1203;64388;-82
2021/04/15 03:04:15;;;;;;;12.13;10.80;;;;;;;1.45;84.78;99295.66;113443;1203;64387;-81
2021/04/15 03:06:45;;;;;;;10.60;9.67;;;;;;;1.47;84.54;99298.23;113382;1203;64531;-82
2021/04/15 03:09:13;;;;;;;10.93;9.93;;;;;;;1.45;84.75;99295.66;113274;1203;64503;-82
2021/04/15 03:11:48;;;;;;;10.50;9.50;;;;;;;1.45;85.01;99295.66;113270;1203;64509;-81
2021/04/15 03:14:28;;;;;;;12.10;10.90;;;;;;;1.43;85.24;99299.22;113230;1203;64331;-83
2021/04/15 03:17:06;;;;;;;12.90;11.70;;;;;;;1.41;84.87;99299.25;113383;1203;64497;-82
2021/04/15 03:19:45;;;;;;;13.30;11.90;;;;;;;1.41;85.08;99296.63;113355;1203;64423;-82
2021/04/15 03:22:33;;;;;;;11.40;10.20;;;;;;;1.40;85.01;99296.68;113404;1203;64372;-81
2021/04/15 03:25:02;;;;;;;12.15;10.95;;;;;;;1.40;85.20;99291.42;113171;1203;64333;-82
2021/04/15 03:28:06;;;;;;;13.10;11.90;;;;;;;1.41;85.09;99294.00;113205;1203;64407;-82
2021/04/15 03:30:43;;;;;;;15.70;14.40;;;;;;;1.41;85.21;99295.77;113313;1203;64497;-83
2021/04/15 03:33:17;;;;;;;13.77;12.43;;;;;;;1.41;85.12;99295.77;113268;1203;64368;-82
2021/04/15 03:35:52;;;;;;;16.40;14.70;;;;;;;1.38;85.24;99291.45;113462;1203;64423;-82
2021/04/15 03:38:33;;;;;;;14.40;13.00;;;;;;;1.41;85.40;99293.14;113316;1203;64395;-80
2021/04/15 03:41:16;;;;;;;12.70;11.60;;;;;;;1.42;85.37;99302.73;113361;1203;64419;-82
2021/04/15 03:43:55;;;;;;;12.77;11.63;;;;;;;1.39;85.24;99297.56;113260;1203;64417;-82
2021/04/15 03:46:31;;;;;;;12.68;11.50;;;;;;;1.39;85.41;99295.79;113245;1203;64423;-82
2021/04/15 03:49:04;;;;;;;13.00;11.80;;;;;;;1.40;85.29;99301.93;113343;1203;64411;-82
2021/04/15 03:51:42;;;;;;;12.65;11.45;;;;;;;1.38;85.58;99288.83;113192;1201;64843;-82
2021/04/15 03:54:16;;;;;;;14.10;12.70;;;;;;;1.37;85.33;99292.36;113399;1203;64375;-83
2021/04/15 03:56:50;;;;;;;14.70;13.30;;;;;;;1.36;85.45;99295.88;113328;1203;64406;-82
2021/04/15 03:59:35;;;;;;;14.40;12.80;;;;;;;1.37;85.55;99289.73;113320;1203;64525;-82
2021/04/15 04:02:12;;;;;;;13.77;12.57;;;;;;;1.36;85.58;99292.39;113306;1203;64318;-81
2021/04/15 04:04:47;;;;;;;13.27;11.93;;;;;;;1.33;85.46;99297.72;113537;1203;64410;-82
2021/04/15 04:07:40;;;;;;;13.65;12.35;;;;;;;1.34;85.62;99294.18;113288;1203;64400;-82
2021/04/15 04:10:14;;;;;;;15.15;13.45;;;;;;;1.33;85.48;99303.83;113221;1203;64410;-83
2021/04/15 04:13:03;;;;;;;14.07;12.67;;;;;;;1.33;85.61;99295.09;113150;1203;64542;-82
2021/04/15 04:15:34;;;;;;;17.30;14.55;;;;;;;1.31;85.51;99295.98;113194;1203;64464;-82
2021/04/15 04:18:01;;;;;;;15.03;13.53;;;;;;;1.32;85.49;99291.61;113196;1203;64858;-81
2021/04/15 04:20:35;;;;;;;14.50;13.10;;;;;;;1.34;85.30;99294.18;113159;1203;64321;-81
2021/04/15 04:23:24;;;;;;;16.23;14.63;;;;;;;1.35;85.31;99298.55;113354;1203;64394;-82
2021/04/15 04:26:04;;;;;;;17.50;15.80;;;;;;;1.34;85.33;99291.55;113316;1203;64512;-82
2021/04/15 04:28:41;;;;;;;16.65;15.10;;;;;;;1.37;85.09;99294.99;113501;1203;64563;-84
2021/04/15 04:31:22;;;;;;;16.60;15.10;;;;;;;1.39;85.41;99297.56;113280;1203;64401;-82
2021/04/15 04:33:52;;;;;;;13.97;12.67;;;;;;;1.45;85.28;99298.28;113697;1203;64394;-84
2021/04/15 04:36:22;;;;;;;16.57;14.83;;;;;;;1.46;84.97;99296.52;113372;1203;64388;-83
2021/04/15 04:38:57;;;;;;;16.70;15.00;;;;;;;1.45;84.98;99303.54;113638;1203;64484;-83
2021/04/15 04:41:52;;;;;;;16.50;14.80;;;;;;;1.44;85.08;99304.42;113489;1203;64513;-81
2021/04/15 04:44:51;;;;;;;17.45;15.65;;;;;;;1.42;84.90;99300.10;113319;1203;64381;-83
2021/04/15 04:47:40;;;;;;;15.50;14.00;;;;;;;1.42;85.08;99306.24;113186;1203;64497;-82
2021/04/15 04:50:43;;;;;;;15.10;13.80;;;;;;;1.41;85.09;99299.25;113249;1203;64728;-82
2021/04/15 04:53:28;;;;;;;14.70;13.20;;;;;;;1.43;85.04;99296.59;113169;1203;64511;-82
2021/04/15 04:55:57;;;;;;;16.00;14.40;;;;;;;1.44;84.80;99303.56;113414;1203;64474;-82
2021/04/15 04:58:24;;;;;;;17.80;16.10;;;;;;;1.43;85.04;99307.10;113338;1203;64391;-83
2021/04/15 05:00:55;;;;;;;16.83;15.03;;;;;;;1.44;84.76;99304.42;113268;1203;64372;-83
2021/04/15 05:03:33;;;;;;;15.95;14.35;;;;;;;1.46;85.08;99307.02;113209;1203;64484;-83
2021/04/15 05:06:05;;;;;;;16.87;15.07;;;;;;;1.46;85.02;99304.39;113301;1203;64459;-82
2021/04/15 05:08:50;;;;;;;16.55;14.85;;;;;;;1.45;85.16;99287.78;113467;1203;64906;-82
2021/04/15 05:11:17;;;;;;;17.00;15.20;;;;;;;1.51;85.03;99299.89;113148;1203;64407;-82
2021/04/15 05:13:44;;;;;;;15.60;14.00;;;;;;;1.56;85.14;99300.64;113182;1203;64454;-83
2021/04/15 05:16:11;;;;;;;15.50;13.90;;;;;;;1.61;84.86;99303.16;113270;1203;64423;-83
2021/04/15 05:18:39;;;;;;;16.20;14.60;;;;;;;1.62;84.80;99300.47;113162;1203;64525;-82
2021/04/15 05:21:19;;;;;;;16.80;15.10;;;;;;;1.61;84.67;99292.65;113189;1203;64391;-82
2021/04/15 05:23:57;;;;;;;17.77;16.00;;;;;;;1.60;84.89;99299.64;113275;1203;64388;-82
2021/04/15 05:26:27;;;;;;;19.40;17.33;;;;;;;1.57;84.58;99297.09;113352;1203;64449;-82
2021/04/15 05:29:00;;;;;;;17.80;16.00;;;;;;;1.61;84.74;99303.16;113372;1203;64321;-82
2021/04/15 05:31:30;;;;;;;16.83;15.13;;;;;;;1.66;84.68;99296.88;113384;1203;64455;-82
2021/04/15 05:33:58;;;;;;;;;;;;;;;1.71;84.65;99294.99;113486;1211;64387;-83
2021/04/15 05:36:35;;;;;;;16.47;14.87;;;;;;;1.74;84.75;99297.53;113497;1203;64388;-81
2021/04/15 05:39:07;;;;;;;17.00;15.40;;;;;;;1.74;84.56;99296.68;113348;1203;64388;-82
2021/04/15 05:42:01;;;;;;;13.20;11.83;;;;;;;1.79;84.85;99300.05;113147;1203;64378;-83
2021/04/15 05:44:54;;;;;;;15.80;14.20;;;;;;;1.80;84.51;99298.28;113223;1203;64375;-81
2021/04/15 05:47:35;;;;;;;15.03;13.63;;;;;;;1.83;84.33;99295.56;113455;1203;64500;-82
2021/04/15 05:50:10;;;;;;;16.30;14.70;;;;;;;1.79;84.25;99299.16;113458;1203;64391;-82
2021/04/15 05:52:46;;;;;;;13.75;12.30;;;;;;;1.82;84.54;99296.45;113338;1203;64397;-82
2021/04/15 05:55:19;;;;;;;13.83;12.57;;;;;;;1.80;84.38;99298.28;113409;1203;64333;-82
2021/04/15 05:57:50;;;;;;;14.60;13.20;;;;;;;1.80;84.49;99298.28;113448;1203;64435;-82
2021/04/15 06:00:37;;;;;;;14.83;13.07;;;;;;;1.87;84.48;99298.08;113174;1203;64503;-82
2021/04/15 06:03:43;;;;;;;17.05;12.80;;;;;;;1.89;83.94;99298.02;113468;1203;64401;-82
2021/04/15 06:06:26;;;;;;;13.95;12.55;;;;;;;1.91;84.21;99293.59;113144;1203;64430;-82
2021/04/15 06:08:53;;;;;;;12.90;11.70;;;;;;;1.92;84.06;99292.67;113404;1203;64411;-82
2021/04/15 06:11:47;;;;;;;10.53;9.53;;;;;;;1.92;83.93;99300.55;113091;1203;64410;-82
2021/04/15 06:14:26;;;;;;;11.00;9.35;;;;;;;1.93;84.19;99294.42;113279;1203;64371;-82
2021/04/15 06:17:20;;;;;;;11.40;10.30;;;;;;;1.93;83.98;99291.79;113161;1203;64413;-82
2021/04/15 06:19:54;;;;;;;10.85;9.80;;;;;;;1.97;84.05;99290.78;113375;1203;64353;-82
2021/04/15 06:22:25;;;;;;;10.90;9.90;;;;;;;1.95;83.95;99296.10;113363;1203;64369;-82
2021/04/15 06:25:23;;;;;;;11.00;9.90;;;;;;;1.95;84.03;99289.98;113334;1203;64500;-82
2021/04/15 06:27:49;;;;;;;;;;;;;;;1.97;83.85;99289.05;113216;1203;64477;-82
2021/04/15 06:30:22;;;;;;;13.90;9.97;;;;;;;2.05;83.88;99280.92;113195;1203;64474;-82
2021/04/15 06:33:01;;;;;;;10.70;9.20;;;;;;;2.10;83.76;99280.80;113323;1203;64391;-82
2021/04/15 06:35:31;;;;;;;10.25;9.15;;;;;;;2.09;83.78;99284.34;113174;1203;64884;-81
2021/04/15 06:38:18;;;;;;;12.00;10.80;;;;;;;2.11;83.85;99287.80;113193;1203;64522;-82
2021/04/15 06:41:02;;;;;;;11.77;10.57;;;;;;;2.18;83.86;99286.70;113209;1203;64561;-82
2021/04/15 06:44:00;;;;;;;10.75;9.65;;;;;;;2.25;83.49;99283.00;113285;1203;64384;-81
2021/04/15 06:46:49;;;;;;;9.90;8.90;;;;;;;2.39;83.60;99277.33;113340;1203;64410;-82
2021/04/15 06:49:27;;;;;;;10.10;9.00;;;;;;;2.49;83.30;99277.94;113195;1203;64291;-82
2021/04/15 06:52:11;;;;;;;11.05;9.85;;;;;;;2.55;82.81;99273.34;113232;1203;64522;-82
2021/04/15 06:55:02;;;;;;;10.40;9.40;;;;;;;2.56;82.79;99275.08;113308;1203;64379;-82
2021/04/15 06:58:03;;;;;;;8.65;7.83;;;;;;;2.59;82.45;99279.39;113204;1203;64496;-83
2021/04/15 07:00:51;;;;;;;8.87;7.97;;;;;;;2.65;82.59;99271.30;113317;1203;64432;-83
2021/04/15 07:03:56;;;;;;;13.80;8.00;;;;;;;2.70;82.47;99274.66;113214;1203;64483;-83
2021/04/15 07:07:21;;;;;;;8.30;7.40;;;;;;;2.80;82.17;99269.98;113259;1203;64483;-81
2021/04/15 07:10:09;;;;;;;8.10;7.30;;;;;;;2.77;82.16;99277.98;113019;1209;64525;-82
2021/04/15 07:13:18;;;;;;;8.90;8.00;;;;;;;2.82;82.05;99276.06;113082;1206;64493;-82
2021/04/15 07:16:20;;;;;;;8.00;7.20;;;;;;;2.90;82.07;99275.80;113412;1203;64340;-83
2021/04/15 07:19:14;;;;;;;8.20;7.40;;;;;;;3.01;81.44;99273.72;113580;1203;64395;-80
2021/04/15 07:21:43;;;;;;;9.65;8.40;;;;;;;3.05;81.69;99276.20;113434;1203;64340;-83
2021/04/15 07:24:28;;;;;;;9.75;8.85;;;;;;;3.14;81.40;99267.14;113360;1203;64394;-81
2021/04/15 07:27:04;;;;;;;9.25;7.90;;;;;;;3.14;80.99;99276.82;113726;1203;64397;-82
2021/04/15 07:30:15;;;;;;;10.70;8.25;;;;;;;3.17;81.21;99274.94;113540;1203;64494;-83
2021/04/15 07:32:55;;;;;;;8.80;7.90;;;;;;;3.19;81.09;99272.27;113721;1203;64519;-87
2021/04/15 07:36:01;;;;;;;10.70;9.60;;;;;;;3.22;80.97;99277.44;113306;1203;64378;-87
2021/04/15 07:38:30;;;;;;;10.60;8.80;;;;;;;3.23;80.92;99264.20;114253;1203;64464;-83
2021/04/15 07:41:14;;;;;;;10.30;9.27;;;;;;;3.21;80.97;99273.05;113887;1203;64394;-90
2021/04/15 07:43:55;;;;;;;10.30;8.25;;;;;;;3.29;80.69;99276.30;115239;1203;64378;-93
2021/04/15 07:46:32;;;;;;;12.15;7.55;;;;;;;3.32;81.18;99284.13;115224;1203;64915;-88
2021/04/15 07:49:27;;;;;;;8.50;7.30;;;;;;;3.40;80.97;99274.19;115907;1203;64397;-91
2021/04/15 07:52:33;;;;;;;8.70;7.40;;;;;;;3.49;80.42;99283.55;117064;1168;64414;-91
2021/04/15 07:57:59;;;;;;;6.90;6.20;;;;;;;3.56;79.76;99281.59;115818;1168;64430;-87
2021/04/15 08:00:47;;;;;;;10.33;9.40;;;;;;;3.63;80.12;99283.94;113796;1202;64362;-86
2021/04/15 08:03:44;;;;;;;9.35;8.30;;;;;;;3.64;79.95;99285.68;113814;1203;64441;-83
2021/04/15 08:06:45;;;;;;;8.60;7.70;;;;;;;3.63;79.91;99278.66;113328;1203;64487;-88
2021/04/15 08:09:31;;;;;;;10.55;8.75;;;;;;;3.65;79.62;99278.63;113843;1203;64387;-89
2021/04/15 08:12:32;;;;;;;8.80;6.95;;;;;;;3.73;79.72;99285.34;113931;1202;64401;-90
2021/04/15 08:15:04;;;;;;;7.35;6.65;;;;;;;3.76;79.24;99280.89;113544;1203;64310;-87
2021/04/15 08:18:12;;;;;;;8.90;7.40;;;;;;;3.86;79.12;99277.02;113646;1203;64362;-92
2021/04/15 08:20:53;;;;;;;8.20;7.00;;;;;;;3.90;78.33;99268.96;115137;1203;64487;-86
2021/04/15 08:23:53;;;;;;;8.33;7.43;;;;;;;3.98;78.94;99275.71;113405;1203;64368;-86
2021/04/15 08:26:32;;;;;;;;;;;;;;;4.13;78.63;99276.05;113385;1209;64426;-85
2021/04/15 08:29:26;;;;;;;7.35;6.55;;;;;;;4.12;78.93;99269.04;113297;1202;64372;-80
2021/04/15 08:32:07;;;;;;;8.70;7.80;;;;;;;4.05;78.51;99278.08;113208;1203;64490;-81
2021/04/15 08:34:57;;;;;;;7.90;7.20;;;;;;;3.93;78.10;99278.54;113251;1203;64429;-81
2021/04/15 08:37:59;;;;;;;7.57;6.77;;;;;;;3.79;78.16;99281.67;113300;1202;64394;-82
2021/04/15 08:40:50;;;;;;;7.30;6.05;;;;;;;3.77;78.35;99280.84;113508;1203;64484;-82
2021/04/15 08:43:40;;;;;;;6.83;6.13;;;;;;;3.70;77.55;99264.38;113421;1202;64387;-81
2021/04/15 08:46:07;;;;;;;;;;;;;;;3.73;78.40;99276.58;113487;1210;64388;-80
2021/04/15 08:48:48;;;;;;;8.95;8.20;;;;;;;3.72;78.77;99273.09;113436;1202;64567;-81
2021/04/15 08:51:36;;;;;;;8.30;7.50;;;;;;;3.78;78.68;99281.70;113454;1202;64388;-81
2021/04/15 08:54:34;;;;;;;8.80;7.90;;;;;;;3.84;78.66;99277.06;113311;1202;64366;-81
2021/04/15 08:57:04;;;;;;;8.80;8.00;;;;;;;4.16;78.74;99278.58;113361;1203;64883;-81
2021/04/15 08:59:46;;;;;;;8.30;7.10;;;;;;;4.30;77.26;99275.42;113457;1202;64381;-81
2021/04/15 09:02:21;;;;;;;8.77;7.93;;;;;;;4.09;77.39;99270.94;113486;1203;64336;-81
2021/04/15 09:05:08;;;;;;;8.85;8.05;;;;;;;3.97;78.24;99277.50;113313;1202;64391;-81
2021/04/15 09:07:55;;;;;;;7.75;7.05;;;;;;;3.89;78.10;99275.13;113495;1203;64369;-81
2021/04/15 09:11:04;;;;;;;8.55;7.80;;;;;;;3.99;78.52;99280.09;113476;1203;64394;-81
2021/04/15 09:14:03;;;;;;;8.10;7.40;;;;;;;4.05;78.43;99272.80;113436;1203;64547;-80
2021/04/15 09:16:35;;;;;;;10.33;9.07;;;;;;;4.15;78.21;99275.98;113084;1203;64583;-80
2021/04/15 09:19:23;;;;;;;9.90;9.00;;;;;;;4.18;77.85;99278.50;113314;1203;64378;-81
2021/04/15 09:21:54;;;;;;;8.95;7.90;;;;;;;4.31;77.82;99278.92;113333;1203;64430;-81
2021/04/15 09:25:03;;;;;;;10.20;9.20;;;;;;;4.09;77.88;99274.43;113274;1203;64381;-81
2021/04/15 09:27:43;;;;;;;9.20;8.37;;;;;;;3.99;78.24;99273.03;113327;1203;64390;-81
2021/04/15 09:30:41;;;;;;;9.30;8.50;;;;;;;3.97;78.16;99272.22;113480;1203;64515;-81
2021/04/15 09:33:26;;;;;;;10.00;9.10;;;;;;;3.90;78.37;99268.96;113201;1202;64371;-81
2021/04/15 09:35:59;;;;;;;8.23;7.43;;;;;;;4.02;78.07;99265.01;113321;1203;64391;-81
2021/04/15 09:38:41;;;;;;;9.10;8.20;;;;;;;4.09;78.15;99269.16;113232;1203;64407;-81
2021/04/15 09:41:42;;;;;;;10.20;9.40;;;;;;;4.17;77.72;99266.24;113226;1201;64487;-81
2021/04/15 09:44:46;;;;;;;10.90;10.00;;;;;;;4.14;77.89;99271.64;113392;1203;64465;-81
2021/04/15 09:47:44;;;;;;;8.30;7.60;;;;;;;3.97;77.93;99264.31;113374;1203;64388;-80
2021/04/15 09:50:24;;;;;;;8.60;7.70;;;;;;;4.05;78.63;99270.17;113461;1203;64394;-81
2021/04/15 09:53:09;;;;;;;8.10;7.40;;;;;;;4.06;78.36;99265.78;113483;1203;64496;-81
2021/04/15 09:55:54;;;;;;;8.30;7.50;;;;;;;4.05;77.82;99266.67;113489;1203;64452;-81
2021/04/15 09:58:39;;;;;;;8.60;7.80;;;;;;;3.98;77.92;99275.71;113463;1203;64487;-81
2021/04/15 10:01:24;;;;;;;9.10;8.30;;;;;;;3.94;77.96;99273.19;113476;1203;64327;-82
2021/04/15 10:03:50;;;;;;;8.30;7.60;;;;;;;4.01;78.05;99273.85;113436;1203;64426;-83
2021/04/15 10:06:26;;;;;;;6.73;6.03;;;;;;;3.95;77.95;99269.66;113483;1202;64384;-83
2021/04/15 10:08:56;;;;;;;7.05;6.10;;;;;;;3.77;78.17;99277.36;114004;1200;64484;-80
2021/04/15 10:11:50;;;;;;;8.60;6.93;;;;;;;3.66;78.68;99281.22;114786;1202;64490;-80
2021/04/15 10:14:29;;;;;;;7.90;7.20;;;;;;;3.79;78.41;99270.23;113607;1203;64426;-81
2021/04/15 10:17:18;;;;;;;7.27;6.43;;;;;;;3.93;78.38;99273.27;113941;1203;64387;-81
2021/04/15 10:20:21;;;;;;;8.00;6.50;;;;;;;4.09;78.51;99266.52;113632;1203;64429;-80
2021/04/15 10:23:06;;;;;;;7.00;6.30;;;;;;;3.99;77.48;99266.91;113365;1202;64464;-83
2021/04/15 10:25:48;;;;;;;6.97;6.27;;;;;;;3.89;77.74;99274.27;113294;1203;64388;-81
2021/04/15 10:28:23;;;;;;;6.95;5.55;;;;;;;4.01;78.03;99268.58;113136;1203;64455;-80
2021/04/15 10:30:55;;;;;;;7.53;5.73;;;;;;;4.12;77.79;99263.77;113244;1203;64423;-81
2021/04/15 10:34:04;;;;;;;6.30;4.60;;;;;;;4.15;78.19;99268.07;113291;1203;64487;-81
2021/04/15 10:36:51;;;;;;;5.75;4.80;;;;;;;4.18;77.89;99267.95;113343;1203;64503;-81
2021/04/15 10:39:36;;;;;;;6.75;6.05;;;;;;;4.13;77.39;99265.50;113410;1203;64433;-80
2021/04/15 10:42:41;;;;;;;6.83;5.70;;;;;;;4.16;78.15;99259.23;113201;1203;64506;-80
2021/04/15 10:45:17;;;;;;;5.55;4.80;;;;;;;4.30;78.12;99258.74;113210;1203;64397;-81
2021/04/15 10:48:05;;;;;;;6.20;5.00;;;;;;;4.46;77.13;99253.75;113235;1202;64327;-80
2021/04/15 10:50:52;;;;;;;6.13;5.53;;;;;;;4.50;77.61;99252.70;113309;1203;64321;-81
2021/04/15 10:53:57;;;;;;;6.27;5.67;;;;;;;4.42;77.37;99252.13;113345;1203;64362;-81
2021/04/15 10:56:24;;;;;;;4.97;4.47;;;;;;;4.37;76.75;99252.30;113222;1201;64474;-80
2021/04/15 10:58:59;;;;;;;5.00;4.30;;;;;;;4.27;76.73;99249.16;113277;1203;64346;-81
2021/04/15 11:01:33;;;;;;;6.75;5.45;;;;;;;4.25;77.17;99250.14;113348;1203;64384;-80
2021/04/15 11:04:04;;;;;;;6.17;5.50;;;;;;;4.33;77.27;99251.56;113367;1203;64423;-80
2021/04/15 11:06:42;;;;;;;6.10;5.20;;;;;;;4.34;77.65;99253.27;113468;1203;64413;-81
2021/04/15 11:09:33;;;;;;;4.80;4.23;;;;;;;4.32;77.33;99257.77;113456;1203;64432;-81
2021/04/15 11:12:23;;;;;;;5.25;4.75;;;;;;;4.24;77.29;99253.67;113454;1203;64391;-82
2021/04/15 11:14:50;;;;;;;;;;;;;;;4.29;77.57;99260.53;113353;1210;64394;-81
2021/04/15 11:17:29;;;;;;;8.05;6.45;;;;;;;4.25;77.20;99256.27;113516;1203;64385;-82
2021/04/15 11:20:20;;;;;;;6.77;6.07;;;;;;;4.14;77.58;99261.94;113348;1202;64506;-81
2021/04/15 11:22:59;;;;;;;6.50;5.40;;;;;;;4.07;77.92;99254.30;113365;1203;64414;-81
2021/04/15 11:25:31;;;;;;;7.30;6.20;;;;;;;4.18;77.60;99252.98;113602;1203;64398;-81
2021/04/15 11:28:09;;;;;;;6.17;5.53;;;;;;;4.22;77.43;99264.30;113483;1202;64433;-80
2021/04/15 11:30:39;;;;;;;7.45;6.45;;;;;;;4.17;77.50;99261.82;113359;1202;64510;-82
2021/04/15 11:33:09;;;;;;;7.65;6.20;;;;;;;4.18;77.80;99262.67;113458;1203;64433;-82
2021/04/15 11:35:36;;;;;;;8.87;5.70;;;;;;;4.21;77.70;99261.70;113433;1202;64439;-81
2021/04/15 11:38:18;;;;;;;7.05;6.35;;;;;;;4.38;77.53;99257.53;113280;1202;64396;-81
2021/04/15 11:41:13;;;;;;;6.50;5.55;;;;;;;4.37;76.66;99247.02;113414;1203;65041;-82
2021/04/15 11:43:40;;;;;;;7.85;6.40;;;;;;;4.11;77.10;99261.20;113372;1202;64391;-83
2021/04/15 11:46:12;;;;;;;8.17;6.67;;;;;;;4.07;77.83;99257.80;113414;1203;64324;-84
2021/04/15 11:48:39;;;;;;;8.25;5.95;;;;;;;4.39;77.49;99259.23;113416;1203;64471;-82
2021/04/15 11:51:21;;;;;;;6.60;5.50;;;;;;;4.57;76.61;99259.47;113357;1203;64368;-82
2021/04/15 11:53:59;;;;;;;7.70;6.90;;;;;;;4.73;76.49;99259.73;113309;1203;64394;-83
2021/04/15 11:56:32;;;;;;;7.40;6.60;;;;;;;4.77;76.20;99256.93;113351;1203;64407;-83
2021/04/15 11:59:22;;;;;;;6.40;5.80;;;;;;;4.75;76.54;99255.27;113466;1203;64448;-82
2021/04/15 12:01:51;;;;;;;7.30;6.20;;;;;;;4.70;77.10;99257.22;113482;1203;64384;-83
2021/04/15 12:04:26;;;;;;;6.00;5.40;;;;;;;4.75;76.88;99257.91;113370;1203;64487;-83
2021/04/15 12:07:06;;;;;;;7.60;5.80;;;;;;;4.53;76.95;99252.58;113439;1203;64490;-82
2021/04/15 12:09:37;;;;;;;7.20;6.20;;;;;;;4.51;77.71;99250.02;113203;1203;64634;-83
2021/04/15 12:12:25;;;;;;;7.43;6.17;;;;;;;4.54;76.83;99254.31;113237;1203;64382;-83
2021/04/15 12:14:53;;;;;;;7.75;6.15;;;;;;;4.72;76.80;99258.89;113231;1203;64452;-83
2021/04/15 12:17:41;;;;;;;9.00;6.10;;;;;;;4.86;76.28;99252.20;113222;1202;64406;-83
2021/04/15 12:20:17;;;;;;;6.10;5.50;;;;;;;4.67;76.20;99247.64;113330;1203;64362;-82
2021/04/15 12:22:59;;;;;;;6.17;5.57;;;;;;;4.55;76.09;99245.47;113346;1202;64461;-82
2021/04/15 12:25:35;;;;;;;8.90;6.00;;;;;;;4.40;76.95;99241.66;113396;1203;64493;-83
2021/04/15 12:28:34;;;;;;;5.70;4.75;;;;;;;4.38;76.29;99251.40;113506;1203;64416;-85
2021/04/15 12:31:14;;;;;;;5.90;4.50;;;;;;;4.39;76.55;99246.05;113286;1203;64487;-83